createdAt,value
2022-10-05T00:01:23.197Z,33.07
2022-10-05T00:03:52.153Z,28.33
2022-10-05T00:06:20.156Z,28.13
2022-10-05T00:08:48.173Z,26.60
2022-10-05T00:11:18.583Z,27.67
2022-10-05T00:13:47.058Z,29.17
2022-10-05T00:16:19.124Z,28.13
2022-10-05T00:18:50.512Z,25.93
2022-10-05T00:21:24.518Z,24.80
2022-10-05T00:23:53.741Z,29.07
2022-10-05T00:26:25.837Z,27.40
2022-10-05T00:28:54.983Z,33.60
2022-10-05T00:31:25.680Z,26.20
2022-10-05T00:33:54.850Z,29.43
2022-10-05T00:36:23.374Z,27.40
2022-10-05T00:38:51.400Z,27.43
2022-10-05T00:41:25.792Z,30.80
2022-10-05T00:44:20.997Z,29.83
2022-10-05T00:46:57.932Z,24.30
2022-10-05T00:49:50.567Z,27.00
2022-10-05T00:52:31.308Z,31.63
2022-10-05T00:55:19.600Z,23.97
2022-10-05T00:58:04.379Z,30.10
2022-10-05T01:00:39.919Z,24.33
2022-10-05T01:03:15.398Z,25.10
2022-10-05T01:05:58.649Z,29.37
2022-10-05T01:08:42.150Z,22.60
2022-10-05T01:11:20.015Z,23.30
2022-10-05T01:13:58.495Z,26.20
2022-10-05T01:16:32.376Z,23.53
2022-10-05T01:19:13.689Z,24.90
2022-10-05T01:21:48.214Z,27.87
2022-10-05T01:24:51.192Z,26.10
2022-10-05T01:27:41.350Z,23.23
2022-10-05T01:30:13.433Z,24.00
2022-10-05T01:32:50.866Z,22.30
2022-10-05T01:35:35.173Z,20.10
2022-10-05T01:38:19.028Z,24.67
2022-10-05T01:40:57.345Z,22.90
2022-10-05T01:43:35.307Z,35.47
2022-10-05T01:46:15.005Z,21.57
2022-10-05T01:48:58.288Z,20.70
2022-10-05T01:51:37.762Z,24.47
2022-10-05T01:54:20.296Z,21.30
2022-10-05T01:57:00.135Z,20.80
2022-10-05T01:59:47.457Z,19.87
2022-10-05T02:02:18.801Z,21.00
2022-10-05T02:05:06.483Z,23.67
2022-10-05T02:07:38.475Z,22.67
2022-10-05T02:10:18.054Z,17.40
2022-10-05T02:12:49.294Z,22.20
2022-10-05T02:15:23.829Z,22.90
2022-10-05T02:17:57.725Z,25.87
2022-10-05T02:20:31.073Z,20.30
2022-10-05T02:23:04.151Z,19.60
2022-10-05T02:25:38.457Z,19.90
2022-10-05T02:28:12.491Z,24.37
2022-10-05T02:30:50.209Z,23.90
2022-10-05T02:33:24.673Z,19.57
2022-10-05T02:35:52.644Z,19.67
2022-10-05T02:38:34.087Z,18.30
2022-10-05T02:41:13.575Z,20.13
2022-10-05T02:43:54.540Z,23.33
2022-10-05T02:46:34.460Z,18.97
2022-10-05T02:49:19.458Z,17.83
2022-10-05T02:51:55.636Z,19.20
2022-10-05T02:54:42.528Z,20.43
2022-10-05T02:57:17.882Z,23.30
2022-10-05T02:59:54.092Z,17.10
2022-10-05T03:02:26.900Z,20.10
2022-10-05T03:05:08.977Z,20.00
2022-10-05T03:07:46.981Z,18.83
2022-10-05T03:10:28.000Z,18.93
2022-10-05T03:13:03.496Z,16.57
2022-10-05T03:16:00.584Z,21.67
2022-10-05T03:18:48.162Z,17.77
2022-10-05T03:21:35.070Z,19.70
2022-10-05T03:24:21.701Z,17.30
2022-10-05T03:26:56.938Z,19.10
2022-10-05T03:29:36.516Z,18.77
2022-10-05T03:32:16.619Z,19.60
2022-10-05T03:34:51.677Z,19.47
2022-10-05T03:37:27.940Z,16.27
2022-10-05T03:40:04.322Z,19.17
2022-10-05T03:42:42.444Z,20.70
2022-10-05T03:45:23.978Z,20.83
2022-10-05T03:48:01.606Z,16.90
2022-10-05T03:50:45.670Z,19.63
2022-10-05T03:53:20.125Z,16.57
2022-10-05T03:55:54.221Z,19.53
2022-10-05T03:58:29.092Z,16.30
2022-10-05T04:01:03.096Z,16.40
2022-10-05T04:03:35.914Z,18.27
2022-10-05T04:06:12.336Z,14.03
2022-10-05T04:08:48.387Z,16.93
2022-10-05T04:11:23.601Z,17.87
2022-10-05T04:13:57.135Z,18.40
2022-10-05T04:16:29.137Z,15.97
2022-10-05T04:19:03.036Z,17.97
2022-10-05T04:21:39.498Z,15.80
2022-10-05T04:24:15.545Z,18.17
2022-10-05T04:26:58.428Z,20.67
2022-10-05T04:29:35.659Z,20.73
2022-10-05T04:32:26.623Z,17.27
2022-10-05T04:35:14.100Z,13.97
2022-10-05T04:37:58.230Z,15.23
2022-10-05T04:40:40.885Z,18.20
2022-10-05T04:43:16.248Z,14.90
2022-10-05T04:46:04.444Z,15.00
2022-10-05T04:48:49.190Z,14.03
2022-10-05T04:51:37.432Z,10.03
2022-10-05T04:54:21.840Z,8.40
2022-10-05T04:56:56.315Z,11.20
2022-10-05T04:59:55.025Z,9.23
2022-10-05T05:02:34.113Z,9.77
2022-10-05T05:05:25.816Z,9.67
2022-10-05T05:08:08.435Z,9.30
2022-10-05T05:11:15.896Z,8.00
2022-10-05T05:14:23.725Z,8.63
2022-10-05T05:17:10.793Z,7.20
2022-10-05T05:19:52.549Z,5.90
2022-10-05T05:22:29.988Z,7.17
2022-10-05T05:25:22.905Z,8.10
2022-10-05T05:27:56.021Z,6.60
2022-10-05T05:30:27.779Z,8.47
2022-10-05T05:33:12.920Z,7.70
2022-10-05T05:36:27.385Z,6.07
2022-10-05T05:39:14.099Z,6.43
2022-10-05T05:41:56.768Z,6.53
2022-10-05T05:44:29.209Z,6.30
2022-10-05T05:47:04.355Z,7.53
2022-10-05T05:49:45.968Z,6.00
2022-10-05T05:52:19.378Z,7.47
2022-10-05T05:54:57.065Z,7.00
2022-10-05T05:57:29.613Z,9.67
2022-10-05T06:00:06.621Z,5.40
2022-10-05T06:02:43.779Z,7.80
2022-10-05T06:05:27.104Z,8.10
2022-10-05T06:07:56.972Z,6.90
2022-10-05T06:10:34.780Z,8.33
2022-10-05T06:13:12.895Z,8.47
2022-10-05T06:15:49.174Z,7.40
2022-10-05T06:18:20.927Z,5.87
2022-10-05T06:20:56.965Z,5.50
2022-10-05T06:23:31.383Z,6.10
2022-10-05T06:26:18.986Z,9.23
2022-10-05T06:28:53.570Z,8.67
2022-10-05T06:31:45.248Z,6.23
2022-10-05T06:34:33.895Z,5.17
2022-10-05T06:37:05.786Z,4.80
2022-10-05T06:40:01.777Z,6.50
2022-10-05T06:43:06.542Z,5.47
2022-10-05T06:45:53.914Z,6.70
2022-10-05T06:48:36.448Z,5.30
2022-10-05T06:51:16.814Z,6.83
2022-10-05T06:53:58.349Z,16.30
2022-10-05T06:56:33.669Z,9.77
2022-10-05T06:59:10.851Z,15.10
2022-10-05T07:01:52.251Z,7.87
2022-10-05T07:04:38.331Z,7.77
2022-10-05T07:07:19.741Z,4.33
2022-10-05T07:10:05.194Z,7.00
2022-10-05T07:12:54.050Z,6.17
2022-10-05T07:15:43.216Z,3.90
2022-10-05T07:18:41.177Z,8.93
2022-10-05T07:21:22.244Z,6.47
2022-10-05T07:24:00.705Z,10.27
2022-10-05T07:26:35.469Z,6.53
2022-10-05T07:29:24.269Z,7.90
2022-10-05T07:32:04.149Z,5.77
2022-10-05T07:34:48.091Z,5.60
2022-10-05T07:37:41.888Z,5.40
2022-10-05T07:40:16.387Z,5.03
2022-10-05T07:42:57.191Z,11.03
2022-10-05T07:45:30.335Z,4.53
2022-10-05T07:48:00.437Z,6.23
2022-10-05T07:50:35.882Z,6.07
2022-10-05T07:53:12.681Z,5.00
2022-10-05T07:55:46.196Z,6.03
2022-10-05T07:58:24.488Z,7.57
2022-10-05T08:01:11.049Z,4.53
2022-10-05T08:03:53.565Z,9.67
2022-10-05T08:06:41.468Z,4.63
2022-10-05T08:09:26.455Z,5.63
2022-10-05T08:12:03.279Z,8.43
2022-10-05T08:14:41.049Z,6.37
2022-10-05T08:17:23.988Z,3.87
2022-10-05T08:20:04.709Z,7.10
2022-10-05T08:22:43.594Z,4.90
2022-10-05T08:25:21.960Z,5.40
2022-10-05T08:27:57.840Z,4.63
2022-10-05T08:30:26.265Z,5.10
2022-10-05T08:33:01.539Z,3.70
2022-10-05T08:35:37.623Z,7.47
2022-10-05T08:38:13.313Z,5.93
2022-10-05T08:41:25.376Z,5.70
2022-10-05T08:44:46.769Z,3.87
2022-10-05T08:47:30.388Z,3.60
2022-10-05T08:50:19.536Z,3.83
2022-10-05T08:53:21.232Z,4.60
2022-10-05T08:56:24.090Z,6.77
2022-10-05T08:59:29.443Z,6.00
2022-10-05T09:02:20.359Z,4.60
2022-10-05T09:05:11.859Z,8.50
2022-10-05T09:08:37.507Z,4.77
2022-10-05T09:11:14.012Z,5.60
2022-10-05T09:14:08.170Z,4.57
2022-10-05T09:16:57.541Z,4.13
2022-10-05T09:19:54.748Z,3.13
2022-10-05T09:22:38.220Z,10.53
2022-10-05T09:25:22.726Z,4.20
2022-10-05T09:27:58.115Z,3.13
2022-10-05T09:30:52.350Z,3.80
2022-10-05T09:33:57.465Z,3.07
2022-10-05T09:37:22.207Z,4.23
2022-10-05T09:40:52.617Z,3.37
2022-10-05T09:44:09.113Z,4.63
2022-10-05T09:47:04.363Z,3.67
2022-10-05T09:50:07.931Z,3.10
2022-10-05T09:53:09.228Z,3.67
2022-10-05T09:56:20.974Z,3.53
2022-10-05T09:59:38.817Z,4.33
2022-10-05T10:02:27.419Z,5.47
2022-10-05T10:05:25.520Z,2.87
2022-10-05T10:08:10.014Z,2.53
2022-10-05T10:11:03.089Z,3.30
2022-10-05T10:14:33.901Z,4.13
2022-10-05T10:17:17.191Z,3.27
2022-10-05T10:20:18.100Z,4.20
2022-10-05T10:23:41.805Z,2.83
2022-10-05T10:26:44.646Z,2.73
2022-10-05T10:29:59.909Z,2.30
2022-10-05T10:33:13.340Z,3.53
2022-10-05T10:35:46.106Z,3.20
2022-10-05T10:38:45.019Z,5.83
2022-10-05T10:41:38.525Z,3.63
2022-10-05T10:44:58.762Z,3.07
2022-10-05T10:47:47.822Z,3.00
2022-10-05T10:51:15.200Z,3.73
2022-10-05T10:54:21.869Z,4.00
2022-10-05T10:56:57.669Z,2.63
2022-10-05T11:00:03.996Z,3.20
2022-10-05T11:03:08.917Z,2.70
2022-10-05T11:06:12.098Z,3.00
2022-10-05T11:09:18.031Z,2.93
2022-10-05T11:12:34.424Z,4.43
2022-10-05T11:15:30.115Z,3.47
2022-10-05T11:18:11.327Z,3.70
2022-10-05T11:21:21.790Z,3.60
2022-10-05T11:24:38.654Z,3.33
2022-10-05T11:27:54.531Z,2.20
2022-10-05T11:30:58.913Z,2.40
2022-10-05T11:34:11.130Z,2.10
2022-10-05T11:37:29.041Z,2.07
2022-10-05T11:40:34.341Z,2.00
2022-10-05T11:43:46.323Z,2.17
2022-10-05T11:46:25.736Z,2.57
2022-10-05T11:49:28.635Z,2.73
2022-10-05T11:52:07.114Z,2.10
2022-10-05T11:55:15.923Z,2.90
2022-10-05T11:57:51.936Z,4.40
2022-10-05T12:00:22.395Z,2.27
2022-10-05T12:03:42.105Z,2.87
2022-10-05T12:06:25.585Z,3.13
2022-10-05T12:09:12.161Z,3.80
2022-10-05T12:11:57.629Z,6.30
2022-10-05T12:14:37.107Z,2.70
2022-10-05T12:17:16.790Z,2.23
2022-10-05T12:19:49.883Z,2.10
2022-10-05T12:22:23.765Z,1.30
2022-10-05T12:25:22.168Z,1.87
2022-10-05T12:27:53.896Z,1.93
2022-10-05T12:30:30.708Z,1.60
2022-10-05T12:33:06.980Z,1.93
2022-10-05T12:35:48.211Z,4.63
2022-10-05T12:38:28.304Z,2.70
2022-10-05T12:41:07.712Z,1.63
2022-10-05T12:43:48.105Z,5.40
2022-10-05T12:46:26.307Z,7.33
2022-10-05T12:49:25.578Z,1.67
2022-10-05T12:51:58.380Z,2.30
2022-10-05T12:54:43.477Z,1.97
2022-10-05T12:57:23.145Z,3.20
2022-10-05T12:59:59.482Z,2.77
2022-10-05T13:02:42.100Z,4.27
2022-10-05T13:05:26.549Z,2.10
2022-10-05T13:08:12.735Z,4.37
2022-10-05T13:10:47.683Z,3.60
2022-10-05T13:13:37.358Z,2.63
2022-10-05T13:16:16.956Z,2.03
2022-10-05T13:19:00.156Z,2.30
2022-10-05T13:21:47.178Z,1.83
2022-10-05T13:24:23.184Z,2.53
2022-10-05T13:26:59.242Z,4.87
2022-10-05T13:29:33.011Z,2.90
2022-10-05T13:32:06.932Z,4.10
2022-10-05T13:34:41.689Z,1.90
2022-10-05T13:37:20.057Z,1.93
2022-10-05T13:40:01.976Z,2.50
2022-10-05T13:42:38.812Z,2.03
2022-10-05T13:45:18.804Z,2.70
2022-10-05T13:48:02.090Z,2.47
2022-10-05T13:50:33.705Z,19.47
2022-10-05T13:53:12.355Z,5.03
2022-10-05T13:55:46.789Z,2.27
2022-10-05T13:58:27.538Z,3.37
2022-10-05T14:00:58.872Z,2.43
2022-10-05T14:03:34.751Z,2.40
2022-10-05T14:06:09.237Z,3.23
2022-10-05T14:08:49.497Z,1.50
2022-10-05T14:11:28.553Z,4.00
2022-10-05T14:14:23.857Z,4.27
2022-10-05T14:16:55.543Z,2.60
2022-10-05T14:19:28.022Z,5.80
2022-10-05T14:22:02.080Z,2.03
2022-10-05T14:24:44.081Z,2.50
2022-10-05T14:27:23.021Z,1.67
2022-10-05T14:29:59.665Z,7.73
2022-10-05T14:32:31.854Z,5.00
2022-10-05T14:35:16.449Z,2.10
2022-10-05T14:37:51.415Z,4.60
2022-10-05T14:40:34.519Z,2.20
2022-10-05T14:43:19.482Z,1.93
2022-10-05T14:46:01.201Z,2.10
2022-10-05T14:48:39.337Z,3.80
2022-10-05T14:51:12.693Z,2.93
2022-10-05T14:53:45.089Z,3.43
2022-10-05T14:56:41.260Z,1.97
2022-10-05T14:59:31.733Z,2.33
2022-10-05T15:02:23.148Z,14.80
2022-10-05T15:05:00.050Z,6.63
2022-10-05T15:07:35.232Z,4.57
2022-10-05T15:10:26.739Z,3.73
2022-10-05T15:12:58.582Z,5.20
2022-10-05T15:15:32.883Z,4.93
2022-10-05T15:18:07.469Z,10.40
2022-10-05T15:20:43.632Z,5.00
2022-10-05T15:23:24.435Z,1.50
2022-10-05T15:26:04.016Z,4.50
2022-10-05T15:28:42.782Z,1.53
2022-10-05T15:31:25.010Z,5.07
2022-10-05T15:34:01.729Z,3.90
2022-10-05T15:36:37.688Z,1.70
2022-10-05T15:39:19.230Z,2.63
2022-10-05T15:42:00.647Z,1.67
2022-10-05T15:44:45.295Z,1.60
2022-10-05T15:47:22.386Z,2.93
2022-10-05T15:50:02.428Z,8.53
2022-10-05T15:52:38.838Z,7.23
2022-10-05T15:55:26.188Z,3.07
2022-10-05T15:58:09.158Z,4.27
2022-10-05T16:00:45.668Z,3.93
2022-10-05T16:03:23.408Z,3.83
2022-10-05T16:06:15.517Z,7.53
2022-10-05T16:09:07.032Z,5.80
2022-10-05T16:11:56.385Z,5.20
2022-10-05T16:14:35.603Z,5.13
2022-10-05T16:17:25.251Z,3.13
2022-10-05T16:20:21.905Z,3.53
2022-10-05T16:22:59.429Z,4.40
2022-10-05T16:25:39.916Z,6.80
2022-10-05T16:28:21.737Z,5.97
2022-10-05T16:31:00.231Z,5.50
2022-10-05T16:33:48.651Z,6.70
2022-10-05T16:36:31.533Z,10.10
2022-10-05T16:39:08.123Z,3.30
2022-10-05T16:41:42.625Z,4.40
2022-10-05T16:44:20.470Z,6.27
2022-10-05T16:46:58.459Z,4.07
2022-10-05T16:49:38.078Z,5.30
2022-10-05T16:52:10.598Z,6.27
2022-10-05T16:54:47.936Z,4.73
2022-10-05T16:57:22.405Z,5.40
2022-10-05T17:00:08.851Z,5.33
2022-10-05T17:03:05.872Z,26.60
2022-10-05T17:05:55.720Z,75.60
2022-10-05T17:09:08.945Z,174.00
2022-10-05T17:11:59.537Z,186.83
2022-10-05T17:14:39.649Z,375.53
2022-10-05T17:17:34.007Z,370.60
2022-10-05T17:20:18.437Z,543.60
2022-10-05T17:22:52.779Z,687.73
2022-10-05T17:25:31.563Z,700.13
2022-10-05T17:28:23.746Z,702.20
2022-10-05T17:31:14.531Z,686.63
2022-10-05T17:34:27.166Z,725.60
2022-10-05T17:37:05.060Z,721.93
2022-10-05T17:39:52.389Z,718.57
2022-10-05T17:42:49.089Z,708.83
2022-10-05T17:45:57.390Z,705.23
2022-10-05T17:49:10.428Z,693.83
2022-10-05T17:52:21.048Z,702.47
2022-10-05T17:55:38.200Z,694.50
2022-10-05T17:58:58.973Z,676.47
2022-10-05T18:01:31.245Z,677.77
2022-10-05T18:04:34.366Z,658.17
2022-10-05T18:07:06.243Z,696.43
2022-10-05T18:09:56.173Z,659.83
2022-10-05T18:12:40.921Z,658.17
2022-10-05T18:15:48.461Z,656.97
2022-10-05T18:18:56.506Z,657.13
2022-10-05T18:21:37.740Z,616.03
2022-10-05T18:24:32.273Z,621.30
2022-10-05T18:27:34.242Z,619.27
2022-10-05T18:30:21.295Z,604.27
2022-10-05T18:33:08.428Z,618.10
2022-10-05T18:35:51.864Z,608.17
2022-10-05T18:38:34.130Z,588.60
2022-10-05T18:41:08.908Z,564.80
2022-10-05T18:43:44.825Z,581.67
2022-10-05T18:46:32.198Z,557.33
2022-10-05T18:49:15.615Z,556.40
2022-10-05T18:51:53.631Z,547.00
2022-10-05T18:54:40.076Z,533.40
2022-10-05T18:57:52.223Z,537.67
2022-10-05T19:00:21.923Z,521.87
2022-10-05T19:02:52.738Z,521.77
2022-10-05T19:05:47.612Z,496.17
2022-10-05T19:08:29.472Z,503.97
2022-10-05T19:11:06.124Z,503.77
2022-10-05T19:13:43.093Z,474.80
2022-10-05T19:16:29.779Z,474.50
2022-10-05T19:19:29.365Z,477.77
2022-10-05T19:22:05.052Z,467.13
2022-10-05T19:25:00.684Z,467.57
2022-10-05T19:27:43.136Z,472.20
2022-10-05T19:30:25.140Z,447.47
2022-10-05T19:33:29.337Z,453.93
2022-10-05T19:36:11.692Z,436.10
2022-10-05T19:38:59.466Z,423.93
2022-10-05T19:41:44.165Z,431.40
2022-10-05T19:44:38.989Z,413.97
2022-10-05T19:47:19.964Z,407.07
2022-10-05T19:49:58.329Z,402.80
2022-10-05T19:52:31.034Z,405.07
2022-10-05T19:55:14.823Z,389.60
2022-10-05T19:57:52.585Z,399.63
2022-10-05T20:00:27.005Z,376.93
2022-10-05T20:03:11.831Z,385.40
2022-10-05T20:05:40.799Z,362.70
2022-10-05T20:08:16.938Z,359.53
2022-10-05T20:10:45.793Z,373.47
2022-10-05T20:13:23.171Z,367.57
2022-10-05T20:16:45.796Z,368.77
2022-10-05T20:19:55.305Z,372.03
2022-10-05T20:22:33.294Z,335.53
2022-10-05T20:25:05.545Z,332.83
2022-10-05T20:27:48.841Z,338.83
2022-10-05T20:30:21.133Z,335.30
2022-10-05T20:32:49.664Z,320.27
2022-10-05T20:35:18.592Z,321.33
2022-10-05T20:37:46.531Z,311.07
2022-10-05T20:40:15.197Z,319.73
2022-10-05T20:42:43.146Z,315.50
2022-10-05T20:45:12.520Z,306.57
2022-10-05T20:47:42.334Z,297.67
2022-10-05T20:50:11.836Z,298.20
2022-10-05T20:52:39.825Z,284.03
2022-10-05T20:55:10.691Z,281.93
2022-10-05T20:57:41.905Z,283.87
2022-10-05T21:00:12.088Z,277.03
2022-10-05T21:02:41.366Z,276.07
2022-10-05T21:05:10.143Z,285.80
2022-10-05T21:07:38.197Z,278.03
2022-10-05T21:10:08.287Z,281.93
2022-10-05T21:12:36.303Z,272.87
2022-10-05T21:15:05.548Z,277.07
2022-10-05T21:17:34.587Z,291.13
2022-10-05T21:20:04.142Z,263.97
2022-10-05T21:22:32.386Z,268.67
2022-10-05T21:25:00.394Z,264.70
2022-10-05T21:27:28.671Z,242.70
2022-10-05T21:29:56.616Z,256.80
2022-10-05T21:32:24.554Z,243.50
2022-10-05T21:34:52.557Z,236.80
2022-10-05T21:37:21.861Z,248.67
2022-10-05T21:39:49.797Z,241.07
2022-10-05T21:42:17.763Z,258.53
2022-10-05T21:44:45.800Z,249.37
2022-10-05T21:47:13.794Z,242.20
2022-10-05T21:49:42.686Z,246.27
2022-10-05T21:52:10.657Z,229.30
2022-10-05T21:54:40.175Z,225.40
2022-10-05T21:57:08.221Z,227.77
2022-10-05T21:59:36.272Z,218.77
2022-10-05T22:02:04.282Z,219.30
2022-10-05T22:04:32.260Z,236.13
2022-10-05T22:07:00.382Z,235.13
2022-10-05T22:09:28.312Z,226.57
2022-10-05T22:11:58.235Z,221.63
2022-10-05T22:14:26.317Z,210.60
2022-10-05T22:16:55.082Z,204.07
2022-10-05T22:19:23.069Z,215.10
2022-10-05T22:21:51.016Z,217.13
2022-10-05T22:24:19.140Z,210.33
2022-10-05T22:26:51.253Z,205.97
2022-10-05T22:29:21.285Z,205.30
2022-10-05T22:31:49.566Z,199.90
2022-10-05T22:34:19.436Z,196.43
2022-10-05T22:36:48.233Z,195.30
2022-10-05T22:39:16.937Z,191.00
2022-10-05T22:41:45.013Z,185.17
2022-10-05T22:44:12.977Z,191.33
2022-10-05T22:46:42.330Z,205.73
2022-10-05T22:49:10.569Z,192.17
2022-10-05T22:51:38.524Z,193.27
2022-10-05T22:54:07.002Z,185.20
2022-10-05T22:56:35.201Z,192.10
2022-10-05T22:59:03.168Z,186.77
2022-10-05T23:01:31.191Z,188.27
2022-10-05T23:04:00.820Z,177.50
2022-10-05T23:06:28.848Z,190.00
2022-10-05T23:08:57.908Z,174.03
2022-10-05T23:11:28.705Z,179.27
2022-10-05T23:13:58.628Z,166.57
2022-10-05T23:16:29.528Z,180.30
2022-10-05T23:18:58.266Z,161.20
2022-10-05T23:21:30.277Z,175.40
2022-10-05T23:23:58.369Z,170.10
2022-10-05T23:26:27.095Z,167.60
2022-10-05T23:28:55.397Z,168.43
2022-10-05T23:31:26.832Z,171.47
2022-10-05T23:33:55.062Z,168.53
2022-10-05T23:36:31.191Z,158.70
2022-10-05T23:38:59.238Z,171.10
2022-10-05T23:41:27.683Z,159.17
2022-10-05T23:43:55.872Z,158.53
2022-10-05T23:46:24.457Z,160.27
2022-10-05T23:48:53.165Z,149.70
2022-10-05T23:51:21.144Z,160.00
2022-10-05T23:53:50.460Z,152.07
2022-10-05T23:56:18.483Z,149.80
2022-10-05T23:58:46.434Z,157.47
